Terminal Aerodrome Forecast
Issued by NWS Atlanta, GA

Home | Current Version | Previous Version | Text Only | Print | Product List | Glossary On
Versions: 1 2 3 4 5 6 7 8 9 10 11 12 13 14 15 16 17 18 19 20 21 22 23 24 25 26 27 28 29 30 31 32 33 34 35 36 37 38 39
000
FTUS42 KFFC 250352 AAC
TAFATL
TAF AMD
KATL 250352Z 2504/2606 35005KT P6SM BKN015
     FM250700 31004KT P6SM SCT008 BKN012
     FM250900 32005KT P6SM BKN006
     FM251400 31009KT P6SM SCT009 BKN012
     FM251600 31008KT P6SM FEW035
     FM260100 26004KT P6SM SKC=

USA.gov is the U.S. government's official web portal to all federal, state and local government web resources and services.